createdAt,value
2023-05-15T00:00:51.295Z,9.73
2023-05-15T00:04:55.716Z,10.10
2023-05-15T00:06:57.994Z,9.40
2023-05-15T00:09:00.351Z,9.25
2023-05-15T00:11:02.674Z,8.80
2023-05-15T00:13:04.939Z,8.55
2023-05-15T00:15:07.433Z,8.00
2023-05-15T00:17:10.008Z,7.80
2023-05-15T00:19:12.342Z,7.93
2023-05-15T00:21:14.579Z,7.40
2023-05-15T00:23:16.801Z,7.63
2023-05-15T00:25:19.606Z,6.85
2023-05-15T00:27:21.893Z,7.75
2023-05-15T00:29:24.088Z,7.32
2023-05-15T00:31:26.363Z,6.85
2023-05-15T00:33:28.617Z,7.90
2023-05-15T00:35:30.823Z,6.97
2023-05-15T00:37:33.049Z,7.30
2023-05-15T00:39:35.258Z,7.40
2023-05-15T00:41:37.764Z,6.72
2023-05-15T00:43:40.847Z,6.55
2023-05-15T00:45:43.371Z,6.75
2023-05-15T00:47:46.611Z,6.97
2023-05-15T00:49:50.137Z,6.88
2023-05-15T00:51:52.639Z,7.22
2023-05-15T00:53:55.112Z,6.65
2023-05-15T00:55:58.174Z,7.35
2023-05-15T00:58:02.059Z,7.55
2023-05-15T01:00:10.553Z,7.10
2023-05-15T01:02:14.246Z,6.60
2023-05-15T01:04:16.452Z,7.13
2023-05-15T01:06:19.278Z,6.65
2023-05-15T01:08:23.916Z,7.55
2023-05-15T01:10:26.190Z,6.22
2023-05-15T01:12:30.740Z,7.60
2023-05-15T01:14:32.918Z,7.38
2023-05-15T01:16:35.885Z,6.68
2023-05-15T01:18:38.456Z,7.20
2023-05-15T01:20:48.538Z,7.20
2023-05-15T01:23:00.165Z,7.05
2023-05-15T01:25:06.151Z,7.85
2023-05-15T01:27:23.544Z,7.60
2023-05-15T01:29:28.558Z,6.88
2023-05-15T01:31:32.777Z,7.00
2023-05-15T01:33:36.194Z,6.85
2023-05-15T01:35:57.013Z,7.72
2023-05-15T01:38:18.873Z,7.65
2023-05-15T01:40:23.295Z,7.70
2023-05-15T01:42:28.342Z,8.65
2023-05-15T01:44:35.106Z,9.00
2023-05-15T01:46:39.732Z,8.48
2023-05-15T01:48:42.958Z,9.75
2023-05-15T01:50:46.581Z,9.27
2023-05-15T01:52:50.000Z,10.18
2023-05-15T01:54:52.502Z,9.88
2023-05-15T01:56:55.081Z,10.48
2023-05-15T01:59:00.105Z,10.80
2023-05-15T02:01:02.591Z,11.40
2023-05-15T02:03:05.582Z,10.80
2023-05-15T02:05:08.253Z,11.77
2023-05-15T02:07:10.873Z,10.25
2023-05-15T02:09:13.243Z,11.55
2023-05-15T02:11:15.870Z,10.73
2023-05-15T02:13:18.106Z,10.77
2023-05-15T02:15:21.470Z,11.40
2023-05-15T02:17:24.002Z,11.75
2023-05-15T02:19:26.394Z,11.45
2023-05-15T02:21:30.039Z,11.68
2023-05-15T02:23:32.212Z,11.60
2023-05-15T02:25:47.143Z,11.73
2023-05-15T02:27:52.519Z,11.60
2023-05-15T02:30:17.979Z,12.32
2023-05-15T02:32:31.874Z,12.10
2023-05-15T02:34:50.904Z,11.73
2023-05-15T02:36:53.768Z,12.07
2023-05-15T02:38:56.677Z,12.27
2023-05-15T02:40:59.085Z,12.48
2023-05-15T02:43:02.092Z,11.63
2023-05-15T02:45:05.191Z,12.15
2023-05-15T02:47:07.401Z,12.60
2023-05-15T02:49:10.835Z,12.23
2023-05-15T02:51:13.057Z,12.18
2023-05-15T02:53:16.150Z,12.65
2023-05-15T02:55:18.399Z,13.20
2023-05-15T02:57:20.613Z,12.98
2023-05-15T02:59:22.946Z,12.40
2023-05-15T03:01:25.211Z,13.57
2023-05-15T03:03:27.516Z,13.05
2023-05-15T03:05:29.733Z,12.45
2023-05-15T03:07:31.950Z,12.18
2023-05-15T03:09:34.114Z,12.13
2023-05-15T03:11:36.337Z,11.57
2023-05-15T03:13:38.651Z,13.18
2023-05-15T03:15:40.878Z,12.55
2023-05-15T03:17:43.175Z,11.10
2023-05-15T03:19:45.748Z,12.38
2023-05-15T03:21:47.936Z,12.10
2023-05-15T03:23:50.073Z,12.35
2023-05-15T03:25:52.247Z,12.00
2023-05-15T03:27:54.539Z,11.80
2023-05-15T03:29:56.799Z,11.90
2023-05-15T03:31:59.050Z,10.82
2023-05-15T03:34:01.241Z,10.82
2023-05-15T03:36:03.454Z,11.75
2023-05-15T03:38:05.685Z,10.60
2023-05-15T03:40:08.732Z,10.50
2023-05-15T03:42:10.951Z,11.20
2023-05-15T03:44:13.157Z,11.13
2023-05-15T03:46:16.213Z,11.30
2023-05-15T03:48:18.429Z,10.98
2023-05-15T03:50:20.928Z,10.88
2023-05-15T03:52:23.099Z,11.25
2023-05-15T03:54:25.308Z,10.65
2023-05-15T03:56:27.513Z,11.55
2023-05-15T03:58:32.073Z,10.18
2023-05-15T04:00:34.266Z,9.70
2023-05-15T04:02:36.536Z,10.65
2023-05-15T04:04:38.843Z,10.65
2023-05-15T04:06:41.169Z,10.25
2023-05-15T04:08:43.376Z,9.70
2023-05-15T04:10:45.764Z,9.45
2023-05-15T04:12:48.319Z,9.63
2023-05-15T04:14:50.592Z,10.15
2023-05-15T04:16:52.818Z,10.25
2023-05-15T04:18:55.111Z,10.20
2023-05-15T04:20:57.316Z,10.02
2023-05-15T04:22:59.493Z,9.93
2023-05-15T04:25:01.629Z,11.05
2023-05-15T04:27:04.306Z,10.40
2023-05-15T04:31:08.846Z,10.55
2023-05-15T04:33:11.216Z,10.65
2023-05-15T04:35:15.030Z,10.90
2023-05-15T04:37:17.185Z,11.57
2023-05-15T04:39:19.419Z,11.73
2023-05-15T04:41:22.236Z,11.10
2023-05-15T04:45:26.532Z,11.02
2023-05-15T04:47:28.964Z,10.90
2023-05-15T04:49:31.153Z,12.27
2023-05-15T04:51:33.349Z,12.40
2023-05-15T04:53:35.848Z,12.80
2023-05-15T04:55:38.040Z,11.77
2023-05-15T04:57:40.268Z,13.18
2023-05-15T04:59:42.389Z,11.82
2023-05-15T05:01:44.607Z,12.48
2023-05-15T05:03:46.815Z,11.70
2023-05-15T05:05:49.946Z,11.60
2023-05-15T05:07:52.169Z,12.25
2023-05-15T05:09:54.343Z,13.02
2023-05-15T05:11:56.586Z,12.90
2023-05-15T05:13:58.790Z,12.88
2023-05-15T05:16:01.013Z,12.40
2023-05-15T05:18:03.321Z,12.52
2023-05-15T05:20:07.077Z,12.43
2023-05-15T05:22:09.513Z,13.02
2023-05-15T05:24:11.732Z,12.85
2023-05-15T05:26:13.881Z,13.10
2023-05-15T05:28:16.250Z,13.13
2023-05-15T05:30:18.449Z,12.45
2023-05-15T05:32:20.715Z,13.23
2023-05-15T05:34:23.180Z,14.18
2023-05-15T05:36:25.429Z,13.23
2023-05-15T05:38:27.716Z,13.30
2023-05-15T05:40:29.911Z,13.13
2023-05-15T05:42:32.086Z,12.82
2023-05-15T05:44:34.656Z,12.50
2023-05-15T05:46:36.942Z,13.77
2023-05-15T05:48:39.270Z,12.32
2023-05-15T05:50:42.352Z,12.30
2023-05-15T05:52:44.616Z,12.68
2023-05-15T05:54:48.153Z,12.38
2023-05-15T05:56:50.349Z,12.98
2023-05-15T05:58:52.735Z,13.30
2023-05-15T06:00:55.030Z,13.23
2023-05-15T06:02:58.557Z,14.57
2023-05-15T06:05:01.070Z,13.68
2023-05-15T06:07:03.509Z,13.18
2023-05-15T06:09:05.732Z,13.23
2023-05-15T06:11:07.891Z,13.82
2023-05-15T06:13:10.171Z,13.20
2023-05-15T06:15:12.745Z,12.88
2023-05-15T06:17:15.026Z,14.10
2023-05-15T06:19:17.500Z,12.30
2023-05-15T06:21:19.847Z,13.55
2023-05-15T06:23:24.274Z,13.82
2023-05-15T06:25:26.654Z,12.20
2023-05-15T06:27:29.376Z,12.63
2023-05-15T06:31:33.696Z,12.18
2023-05-15T06:33:36.005Z,12.63
2023-05-15T06:35:38.139Z,12.55
2023-05-15T06:37:40.546Z,12.93
2023-05-15T06:39:42.831Z,13.30
2023-05-15T06:41:45.031Z,12.50
2023-05-15T06:43:47.183Z,12.13
2023-05-15T06:45:50.045Z,12.15
2023-05-15T06:47:52.208Z,12.18
2023-05-15T06:49:55.580Z,11.32
2023-05-15T06:51:57.992Z,10.95
2023-05-15T06:54:00.171Z,12.15
2023-05-15T06:56:02.298Z,11.77
2023-05-15T06:58:05.622Z,12.10
2023-05-15T07:00:08.116Z,12.02
2023-05-15T07:02:10.445Z,11.48
2023-05-15T07:04:15.247Z,11.10
2023-05-15T07:06:17.439Z,11.55
2023-05-15T07:08:19.742Z,11.50
2023-05-15T07:10:22.111Z,11.35
2023-05-15T07:12:24.466Z,10.73
2023-05-15T07:14:26.590Z,10.35
2023-05-15T07:16:28.729Z,11.15
2023-05-15T07:18:31.023Z,11.38
2023-05-15T07:20:35.018Z,10.40
2023-05-15T07:22:44.372Z,10.80
2023-05-15T07:28:59.561Z,10.88
2023-05-15T07:31:03.048Z,9.63
2023-05-15T07:33:06.118Z,9.30
2023-05-15T07:35:08.476Z,10.32
2023-05-15T07:37:10.749Z,10.45
2023-05-15T07:39:13.368Z,10.68
2023-05-15T07:43:17.882Z,9.13
2023-05-15T07:45:20.157Z,9.20
2023-05-15T07:47:22.648Z,8.60
2023-05-15T07:49:24.931Z,8.43
2023-05-15T07:51:27.115Z,8.52
2023-05-15T07:53:29.390Z,7.53
2023-05-15T07:55:31.650Z,7.82
2023-05-15T07:57:33.802Z,7.43
2023-05-15T07:59:36.573Z,7.03
2023-05-15T08:03:41.285Z,5.88
2023-05-15T08:05:43.523Z,6.38
2023-05-15T08:07:46.350Z,5.90
2023-05-15T08:11:50.767Z,4.65
2023-05-15T08:13:53.082Z,5.13
2023-05-15T08:15:55.336Z,5.03
2023-05-15T08:17:57.937Z,4.80
2023-05-15T08:20:00.269Z,5.55
2023-05-15T08:22:02.412Z,5.20
2023-05-15T08:24:04.760Z,5.95
2023-05-15T08:26:07.010Z,4.85
2023-05-15T08:28:09.228Z,4.60
2023-05-15T08:30:11.903Z,4.65
2023-05-15T08:34:16.276Z,3.72
2023-05-15T08:36:19.773Z,3.92
2023-05-15T08:38:22.577Z,4.28
2023-05-15T08:40:38.176Z,3.97
2023-05-15T08:42:45.809Z,3.70
2023-05-15T08:44:48.465Z,4.05
2023-05-15T08:46:50.830Z,3.65
2023-05-15T08:48:54.158Z,3.42
2023-05-15T08:50:58.392Z,3.92
2023-05-15T08:53:01.698Z,4.35
2023-05-15T08:55:04.192Z,4.20
2023-05-15T08:57:07.134Z,4.53
2023-05-15T08:59:09.327Z,4.22
2023-05-15T09:01:13.325Z,4.70
2023-05-15T09:03:20.073Z,4.47
2023-05-15T09:05:22.470Z,3.78
2023-05-15T09:07:24.929Z,4.50
2023-05-15T09:09:27.877Z,3.85
2023-05-15T09:11:30.889Z,3.10
2023-05-15T09:13:33.092Z,3.72
2023-05-15T09:15:37.279Z,4.07
2023-05-15T09:17:40.255Z,3.42
2023-05-15T09:19:43.028Z,4.20
2023-05-15T09:23:47.328Z,6.13
2023-05-15T09:25:53.812Z,6.50
2023-05-15T09:27:56.150Z,6.28
2023-05-15T09:30:08.998Z,4.93
2023-05-15T09:32:12.154Z,4.63
2023-05-15T09:34:14.503Z,5.43
2023-05-15T09:36:22.914Z,4.53
2023-05-15T09:38:25.155Z,4.55
2023-05-15T09:40:31.345Z,4.50
2023-05-15T09:42:36.064Z,5.43
2023-05-15T09:44:42.248Z,4.88
2023-05-15T09:46:44.552Z,5.78
2023-05-15T09:48:46.985Z,5.93
2023-05-15T09:50:49.198Z,6.32
2023-05-15T09:52:51.929Z,7.28
2023-05-15T09:56:57.327Z,7.18
2023-05-15T09:59:00.303Z,6.85
2023-05-15T10:01:04.263Z,6.10
2023-05-15T10:03:07.579Z,5.38
2023-05-15T10:05:13.031Z,5.88
2023-05-15T10:07:27.629Z,5.97
2023-05-15T10:09:33.195Z,6.03
2023-05-15T10:11:36.404Z,5.45
2023-05-15T10:13:38.690Z,5.70
2023-05-15T10:15:41.269Z,5.50
2023-05-15T10:17:44.623Z,5.43
2023-05-15T10:19:57.312Z,6.35
2023-05-15T10:22:00.926Z,5.88
2023-05-15T10:24:04.614Z,5.75
2023-05-15T10:26:12.177Z,5.60
2023-05-15T10:28:14.977Z,5.03
2023-05-15T10:32:19.752Z,5.20
2023-05-15T10:34:21.945Z,5.63
2023-05-15T10:36:24.673Z,4.80
2023-05-15T10:40:29.194Z,5.32
2023-05-15T10:42:31.897Z,5.75
2023-05-15T10:44:34.097Z,5.10
2023-05-15T10:46:37.137Z,4.80
2023-05-15T10:48:39.746Z,5.20
2023-05-15T10:50:42.091Z,4.70
2023-05-15T10:52:44.448Z,5.40
2023-05-15T10:54:46.729Z,4.63
2023-05-15T10:56:52.028Z,4.85
2023-05-15T10:58:56.149Z,4.70
2023-05-15T11:00:58.367Z,5.07
2023-05-15T11:03:02.069Z,5.68
2023-05-15T11:05:04.507Z,5.40
2023-05-15T11:07:14.247Z,5.50
2023-05-15T11:09:22.750Z,5.50
2023-05-15T11:11:51.402Z,4.88
2023-05-15T11:14:06.029Z,5.35
2023-05-15T11:16:11.119Z,5.80
2023-05-15T11:18:14.413Z,4.63
2023-05-15T11:20:16.649Z,4.57
2023-05-15T11:22:23.163Z,4.97
2023-05-15T11:24:29.132Z,4.75
2023-05-15T11:26:33.349Z,3.80
2023-05-15T11:28:43.116Z,4.03
2023-05-15T11:30:47.158Z,3.65
2023-05-15T11:32:50.089Z,3.75
2023-05-15T11:34:52.276Z,3.05
2023-05-15T11:36:54.441Z,3.10
2023-05-15T11:38:56.758Z,3.25
2023-05-15T11:41:03.207Z,3.38
2023-05-15T11:43:09.487Z,3.70
2023-05-15T11:45:12.007Z,4.68
2023-05-15T11:47:14.238Z,4.82
2023-05-15T11:49:17.426Z,4.90
2023-05-15T11:51:24.979Z,5.38
2023-05-15T11:53:27.496Z,5.22
2023-05-15T11:55:30.099Z,5.22
2023-05-15T11:57:32.255Z,5.50
2023-05-15T11:59:34.532Z,5.38
2023-05-15T12:01:44.126Z,6.40
2023-05-15T12:03:48.848Z,5.50
2023-05-15T12:05:59.177Z,5.90
2023-05-15T12:08:02.504Z,6.35
2023-05-15T12:10:04.848Z,6.35
2023-05-15T12:12:09.284Z,5.28
2023-05-15T12:14:12.738Z,5.38
2023-05-15T12:16:14.906Z,6.13
2023-05-15T12:18:17.099Z,5.40
2023-05-15T12:20:19.685Z,5.85
2023-05-15T12:22:22.233Z,5.65
2023-05-15T12:24:24.416Z,5.45
2023-05-15T12:26:28.164Z,6.68
2023-05-15T12:28:30.989Z,5.82
2023-05-15T12:32:37.103Z,6.35
2023-05-15T12:34:39.299Z,4.63
2023-05-15T12:36:42.987Z,5.05
2023-05-15T12:38:45.272Z,5.22
2023-05-15T12:40:47.460Z,4.90
2023-05-15T12:42:56.307Z,6.00
2023-05-15T12:44:58.487Z,5.00
2023-05-15T12:47:00.780Z,5.20
2023-05-15T12:49:03.107Z,5.72
2023-05-15T12:51:07.192Z,4.68
2023-05-15T12:53:09.516Z,5.70
2023-05-15T12:55:16.276Z,5.68
2023-05-15T12:57:18.548Z,5.40
2023-05-15T12:59:20.821Z,5.05
2023-05-15T13:01:23.198Z,4.53
2023-05-15T13:05:35.467Z,4.68
2023-05-15T13:07:39.187Z,4.40
2023-05-15T13:09:41.479Z,4.13
2023-05-15T13:11:44.764Z,3.63
2023-05-15T13:13:47.780Z,3.65
2023-05-15T13:15:50.662Z,3.78
2023-05-15T13:17:56.450Z,3.85
2023-05-15T13:19:58.712Z,3.90
2023-05-15T13:22:00.937Z,4.38
2023-05-15T13:24:03.615Z,4.55
2023-05-15T13:28:08.237Z,4.72
2023-05-15T13:30:10.681Z,4.57
2023-05-15T13:32:12.861Z,4.28
2023-05-15T13:34:15.364Z,4.30
2023-05-15T13:36:17.581Z,4.53
2023-05-15T13:38:19.702Z,5.00
2023-05-15T13:40:22.130Z,4.07
2023-05-15T13:42:24.331Z,4.30
2023-05-15T13:44:26.519Z,4.25
2023-05-15T13:46:28.782Z,4.05
2023-05-15T13:48:30.962Z,4.30
2023-05-15T13:50:33.345Z,3.53
2023-05-15T13:52:35.716Z,3.97
2023-05-15T13:54:37.836Z,4.10
2023-05-15T13:56:40.009Z,3.80
2023-05-15T13:58:42.549Z,3.90
2023-05-15T14:00:45.279Z,4.45
2023-05-15T14:02:47.610Z,3.80
2023-05-15T14:04:49.880Z,3.97
2023-05-15T14:06:52.438Z,3.90
2023-05-15T14:08:54.577Z,3.90
2023-05-15T14:10:56.754Z,4.10
2023-05-15T14:13:00.682Z,4.47
2023-05-15T14:15:03.192Z,3.63
2023-05-15T14:17:05.762Z,4.13
2023-05-15T14:19:08.071Z,3.45
2023-05-15T14:21:10.467Z,3.40
2023-05-15T14:23:12.689Z,3.28
2023-05-15T14:25:14.915Z,3.10
2023-05-15T14:27:17.245Z,2.90
2023-05-15T14:29:19.482Z,3.10
2023-05-15T14:31:21.599Z,2.67
2023-05-15T14:33:23.801Z,2.72
2023-05-15T14:35:25.968Z,3.15
2023-05-15T14:37:28.381Z,3.40
2023-05-15T14:39:30.606Z,3.20
2023-05-15T14:41:32.937Z,2.67
2023-05-15T14:43:35.122Z,2.63
2023-05-15T14:45:37.300Z,2.75
2023-05-15T14:47:39.591Z,3.08
2023-05-15T14:49:41.758Z,2.97
2023-05-15T14:51:43.950Z,2.65
2023-05-15T14:53:46.181Z,2.70
2023-05-15T14:55:48.384Z,3.00
2023-05-15T14:57:50.706Z,2.60
2023-05-15T14:59:52.879Z,2.80
2023-05-15T15:01:55.369Z,2.75
2023-05-15T15:03:57.622Z,2.88
2023-05-15T15:05:59.827Z,2.75
2023-05-15T15:08:06.285Z,3.10
2023-05-15T15:10:08.710Z,3.00
2023-05-15T15:12:10.866Z,2.83
2023-05-15T15:14:13.008Z,2.72
2023-05-15T15:16:15.303Z,3.03
2023-05-15T15:18:17.579Z,2.70
2023-05-15T15:20:20.801Z,2.95
2023-05-15T15:22:22.945Z,2.80
2023-05-15T15:24:25.098Z,3.22
2023-05-15T15:26:27.326Z,3.55
2023-05-15T15:28:33.601Z,4.07
2023-05-15T15:30:35.846Z,3.50
2023-05-15T15:32:38.774Z,3.65
2023-05-15T15:34:41.022Z,3.40
2023-05-15T15:36:43.761Z,3.35
2023-05-15T15:40:49.755Z,2.90
2023-05-15T15:42:51.896Z,3.00
2023-05-15T15:44:57.445Z,3.10
2023-05-15T15:46:59.678Z,2.88
2023-05-15T15:49:03.808Z,3.35
2023-05-15T15:51:06.737Z,4.20
2023-05-15T15:53:08.930Z,3.25
2023-05-15T15:55:11.177Z,3.22
2023-05-15T15:57:16.854Z,3.08
2023-05-15T15:59:19.035Z,3.35
2023-05-15T16:01:22.288Z,3.25
2023-05-15T16:03:24.923Z,3.20
2023-05-15T16:05:27.201Z,3.38
2023-05-15T16:07:29.379Z,3.88
2023-05-15T16:09:31.840Z,3.35
2023-05-15T16:11:34.028Z,2.83
2023-05-15T16:13:36.234Z,2.83
2023-05-15T16:15:38.380Z,2.80
2023-05-15T16:17:40.865Z,2.03
2023-05-15T16:19:43.088Z,2.60
2023-05-15T16:21:45.211Z,2.55
2023-05-15T16:23:47.412Z,2.65
2023-05-15T16:25:49.574Z,2.10
2023-05-15T16:27:51.713Z,2.20
2023-05-15T16:29:53.961Z,2.20
2023-05-15T16:31:56.497Z,2.03
2023-05-15T16:34:01.456Z,2.13
2023-05-15T16:36:05.383Z,1.98
2023-05-15T16:38:07.595Z,2.13
2023-05-15T16:40:10.056Z,2.35
2023-05-15T16:42:12.244Z,1.67
2023-05-15T16:44:14.567Z,1.92
2023-05-15T16:46:16.835Z,1.73
2023-05-15T16:48:19.039Z,1.55
2023-05-15T16:50:21.438Z,1.75
2023-05-15T16:52:23.695Z,1.45
2023-05-15T16:54:25.939Z,1.50
2023-05-15T16:56:28.115Z,1.80
2023-05-15T16:58:30.290Z,1.70
2023-05-15T17:00:32.414Z,1.77
2023-05-15T17:02:34.903Z,1.70
2023-05-15T17:04:37.674Z,1.80
2023-05-15T17:08:43.534Z,1.77
2023-05-15T17:10:45.723Z,2.13
2023-05-15T17:12:47.947Z,2.33
2023-05-15T17:14:50.158Z,2.55
2023-05-15T17:16:52.359Z,2.60
2023-05-15T17:18:54.835Z,2.63
2023-05-15T17:20:57.067Z,2.95
2023-05-15T17:22:59.206Z,2.63
2023-05-15T17:25:01.511Z,2.80
2023-05-15T17:27:03.742Z,2.58
2023-05-15T17:29:06.051Z,2.97
2023-05-15T17:31:10.187Z,2.60
2023-05-15T17:33:12.501Z,2.78
2023-05-15T17:35:15.763Z,3.13
2023-05-15T17:37:18.180Z,3.67
2023-05-15T17:39:20.361Z,3.72
2023-05-15T17:41:22.586Z,3.15
2023-05-15T17:43:24.756Z,3.17
2023-05-15T17:45:27.481Z,3.58
2023-05-15T17:47:29.907Z,3.10
2023-05-15T17:49:34.220Z,2.90
2023-05-15T17:51:36.488Z,2.75
2023-05-15T17:53:38.675Z,3.13
2023-05-15T17:55:40.935Z,2.90
2023-05-15T17:57:43.147Z,3.03
2023-05-15T17:59:45.307Z,3.35
2023-05-15T18:01:47.548Z,3.50
2023-05-15T18:03:49.765Z,3.45
2023-05-15T18:05:52.753Z,3.35
2023-05-15T18:07:58.053Z,3.40
2023-05-15T18:10:00.358Z,3.20
2023-05-15T18:12:02.574Z,3.90
2023-05-15T18:14:04.931Z,3.83
2023-05-15T18:16:07.478Z,4.07
2023-05-15T18:18:09.686Z,3.58
2023-05-15T18:20:12.174Z,3.53
2023-05-15T18:22:14.424Z,3.92
2023-05-15T18:24:16.650Z,3.95
2023-05-15T18:26:18.997Z,4.05
2023-05-15T18:28:21.220Z,4.07
2023-05-15T18:30:23.646Z,4.38
2023-05-15T18:32:25.859Z,4.65
2023-05-15T18:34:28.118Z,4.60
2023-05-15T18:36:30.757Z,4.22
2023-05-15T18:38:32.932Z,4.30
2023-05-15T18:40:35.154Z,4.88
2023-05-15T18:42:37.348Z,4.80
2023-05-15T18:44:39.970Z,4.97
2023-05-15T18:46:42.374Z,5.28
2023-05-15T18:48:44.671Z,4.50
2023-05-15T18:50:46.826Z,5.40
2023-05-15T18:52:49.059Z,4.93
2023-05-15T18:54:52.534Z,4.63
2023-05-15T18:56:54.737Z,4.45
2023-05-15T18:58:56.986Z,4.63
2023-05-15T19:01:00.116Z,5.07
2023-05-15T19:03:02.729Z,4.93
2023-05-15T19:07:08.594Z,4.95
2023-05-15T19:09:10.709Z,5.00
2023-05-15T19:11:13.012Z,5.40
2023-05-15T19:13:15.280Z,5.13
2023-05-15T19:15:19.036Z,5.40
2023-05-15T19:17:21.678Z,6.55
2023-05-15T19:19:23.958Z,5.38
2023-05-15T19:21:26.502Z,5.60
2023-05-15T19:23:28.700Z,5.07
2023-05-15T19:25:32.007Z,5.32
2023-05-15T19:27:34.828Z,5.18
2023-05-15T19:31:39.475Z,5.45
2023-05-15T19:33:42.118Z,6.03
2023-05-15T19:35:44.394Z,6.05
2023-05-15T19:37:47.246Z,5.75
2023-05-15T19:39:49.413Z,5.80
2023-05-15T19:41:51.648Z,5.00
2023-05-15T19:43:53.759Z,5.63
2023-05-15T19:45:56.068Z,6.22
2023-05-15T19:48:00.104Z,6.07
2023-05-15T19:50:02.361Z,5.97
2023-05-15T19:52:04.570Z,6.50
2023-05-15T19:54:07.084Z,6.50
2023-05-15T19:56:09.607Z,6.30
2023-05-15T19:58:12.001Z,6.22
2023-05-15T20:00:14.454Z,5.95
2023-05-15T20:02:16.677Z,5.63
2023-05-15T20:04:20.953Z,6.10
2023-05-15T20:06:23.294Z,5.45
2023-05-15T20:08:25.854Z,5.45
2023-05-15T20:10:28.142Z,5.40
2023-05-15T20:12:30.441Z,5.70
2023-05-15T20:14:34.244Z,5.55
2023-05-15T20:16:36.990Z,4.45
2023-05-15T20:18:39.923Z,4.90
2023-05-15T20:20:42.164Z,5.35
2023-05-15T20:22:44.850Z,5.38
2023-05-15T20:28:52.472Z,5.63
2023-05-15T20:30:56.754Z,5.07
2023-05-15T20:32:59.052Z,5.28
2023-05-15T20:35:01.650Z,5.65
2023-05-15T20:37:04.102Z,5.68
2023-05-15T20:39:07.306Z,5.13
2023-05-15T20:41:09.755Z,5.10
2023-05-15T20:43:11.988Z,5.15
2023-05-15T20:45:14.594Z,4.72
2023-05-15T20:47:16.892Z,5.18
2023-05-15T20:49:19.026Z,5.15
2023-05-15T20:51:21.805Z,5.50
2023-05-15T20:55:26.081Z,5.13
2023-05-15T20:57:28.228Z,5.40
2023-05-15T20:59:30.380Z,5.57
2023-05-15T21:01:32.650Z,5.25
2023-05-15T21:03:35.007Z,5.57
2023-05-15T21:05:37.186Z,4.60
2023-05-15T21:07:39.610Z,4.70
2023-05-15T21:09:41.773Z,4.85
2023-05-15T21:11:44.061Z,5.28
2023-05-15T21:13:46.433Z,4.97
2023-05-15T21:15:48.668Z,4.93
2023-05-15T21:17:50.900Z,4.60
2023-05-15T21:19:53.202Z,4.80
2023-05-15T21:21:55.651Z,4.95
2023-05-15T21:23:59.414Z,4.68
2023-05-15T21:26:01.546Z,4.75
2023-05-15T21:28:04.830Z,4.78
2023-05-15T21:30:07.349Z,4.60
2023-05-15T21:32:09.506Z,4.25
2023-05-15T21:34:11.676Z,4.55
2023-05-15T21:36:13.886Z,4.40
2023-05-15T21:38:16.443Z,4.35
2023-05-15T21:40:18.877Z,4.28
2023-05-15T21:42:21.053Z,4.55
2023-05-15T21:44:23.553Z,4.60
2023-05-15T21:46:25.793Z,4.10
2023-05-15T21:48:28.055Z,4.05
2023-05-15T21:50:30.275Z,4.03
2023-05-15T21:52:32.411Z,4.55
2023-05-15T21:54:34.611Z,4.68
2023-05-15T21:56:36.745Z,4.43
2023-05-15T21:58:38.875Z,4.70
2023-05-15T22:00:41.173Z,4.57
2023-05-15T22:02:43.512Z,4.75
2023-05-15T22:04:45.736Z,4.90
2023-05-15T22:06:47.968Z,4.60
2023-05-15T22:08:50.277Z,4.72
2023-05-15T22:10:53.878Z,4.45
2023-05-15T22:12:58.893Z,4.45
2023-05-15T22:15:01.196Z,5.05
2023-05-15T22:17:03.474Z,4.43
2023-05-15T22:19:05.667Z,4.63
2023-05-15T22:21:08.583Z,5.05
2023-05-15T22:23:10.943Z,4.35
2023-05-15T22:25:13.617Z,4.82
2023-05-15T22:29:19.633Z,4.30
2023-05-15T22:31:21.833Z,4.13
2023-05-15T22:33:24.552Z,4.30
2023-05-15T22:37:30.435Z,4.53
2023-05-15T22:39:32.923Z,4.68
2023-05-15T22:41:35.058Z,4.50
2023-05-15T22:43:37.274Z,4.22
2023-05-15T22:45:39.439Z,5.32
2023-05-15T22:47:41.760Z,4.57
2023-05-15T22:49:43.959Z,4.43
2023-05-15T22:51:46.881Z,4.60
2023-05-15T22:53:49.110Z,4.25
2023-05-15T22:55:51.653Z,4.38
2023-05-15T22:57:53.827Z,4.68
2023-05-15T22:59:56.008Z,4.68
2023-05-15T23:01:58.143Z,4.43
2023-05-15T23:04:00.379Z,4.60
2023-05-15T23:06:02.554Z,4.63
2023-05-15T23:08:04.805Z,4.88
2023-05-15T23:10:07.353Z,4.53
2023-05-15T23:12:09.621Z,4.07
2023-05-15T23:14:12.095Z,4.35
2023-05-15T23:16:14.577Z,4.35
2023-05-15T23:18:17.147Z,4.60
2023-05-15T23:20:19.643Z,4.57
2023-05-15T23:22:22.244Z,4.28
2023-05-15T23:24:24.496Z,4.38
2023-05-15T23:26:26.721Z,4.22
2023-05-15T23:28:28.913Z,4.07
2023-05-15T23:30:31.144Z,4.53
2023-05-15T23:32:33.417Z,4.43
2023-05-15T23:34:35.687Z,4.38
2023-05-15T23:36:37.915Z,4.10
2023-05-15T23:38:40.392Z,4.60
2023-05-15T23:40:42.519Z,4.40
2023-05-15T23:42:44.630Z,3.85
2023-05-15T23:44:46.773Z,3.70
2023-05-15T23:46:48.943Z,3.80
2023-05-15T23:48:51.296Z,4.28
2023-05-15T23:50:53.483Z,4.03
2023-05-15T23:52:55.700Z,4.28
2023-05-15T23:54:57.848Z,4.18
2023-05-15T23:56:59.949Z,4.10
2023-05-15T23:59:02.118Z,4.22
